• Join FlightAware (Why Join?)
  • Login
  • US Flag 
11:27PM EDT


 

Airport Tracker/Info


-or-


 

Live Flight TrackerFlight Track Log ✈ N960DL ✈ 21-Apr-2013 ✈ KDAY - KATL

Flight Track Log - Related Links

Times and Time Zones

All times are in EDT time to prevent confusion due to time zone crossing. See the N960DL flight status page for this flight to view local times or setup timezone preferences in your user account.

Time Position Orientation Groundspeed Altitude Reporting Facility
EDT Latitude Longitude Course Direction KTS MPH feet Rate Location/Type
04:34PM 39.9042 -84.1989 180° South 159 183 1,600  Level Indianapolis Center
04:35PM 39.9097 -84.1806 68° East 156 180 2,300 1,500 Climbing Indianapolis Center
04:36PM 39.8875 -84.1308 120° Southeast 237 273 3,800 2,520 Climbing Indianapolis Center
04:37PM 39.7060 -84.5249 241° Southwest  Level FlightAware Approximate
04:37PM 39.8358 -84.2114 230° Southwest 266 306 7,500  Level Indianapolis Center
04:38PM 39.6528 -84.6398 232° Southwest  Level FlightAware Approximate
04:38PM 39.7972 -84.2992 240° Southwest 274 315 9,900  Level Indianapolis Center
04:39PM 39.5720 -84.7000 180° South  Level FlightAware Approximate
04:39PM 39.7558 -84.3897 239° Southwest 282 325 12,100  Level Indianapolis Center
04:40PM 39.4686 -84.7000 180° South  Level FlightAware Approximate
04:40PM 39.6831 -84.4436 210° Southwest 300 345 14,400  Level Indianapolis Center
04:41PM 39.5992 -84.5050 209° Southwest 336 387 15,500 1,260 Climbing Indianapolis Center
04:42PM 39.5019 -84.5792 210° Southwest 394 453 17,100 1,800 Climbing Indianapolis Center
04:43PM 39.4000 -84.6531 209° Southwest 413 475 19,300 1,980 Climbing Indianapolis Center
04:44PM 39.2811 -84.7436 211° Southwest 422 486 21,300 1,740 Climbing Indianapolis Center
04:45PM 39.1733 -84.8233 210° Southwest 438 504 22,900 1,800 Climbing Indianapolis Center
04:46PM 39.0758 -84.8972 210° Southwest 443 510 25,100 1,920 Climbing Indianapolis Center
04:47PM 38.9722 -84.9739 210° Southwest 431 496 26,900 900 Climbing Indianapolis Center
04:48PM 38.8517 -85.0653 211° Southwest 419 482 27,000  Climbing Indianapolis Center
04:49PM 38.7503 -85.1400 210° Southwest 418 481 27,000  Level Indianapolis Center
04:50PM 38.6486 -85.2167 211° Southwest 421 484 27,000  Level Indianapolis Center
04:51PM 38.5478 -85.2908 210° Southwest 418 481 27,000 600 Level Indianapolis Center
04:52PM 38.4467 -85.3656 210° Southwest 417 480 28,300 1,500 Climbing Indianapolis Center
04:53PM 38.3361 -85.4147 199° South 416 479 30,100 1,500 Climbing Indianapolis Center
04:54PM 38.2331 -85.4781 206° Southwest 411 473 31,400 1,080 Climbing Indianapolis Center
04:55PM 38.1331 -85.5481 209° Southwest 408 470 32,400 720 Climbing Indianapolis Center
04:56PM 38.0178 -85.6333 210° Southwest 402 463 33,000 240 Climbing Indianapolis Center
04:57PM 37.9225 -85.7081 212° Southwest 400 460 33,000  Level Indianapolis Center
04:58PM 37.8244 -85.7822 211° Southwest 406 467 33,000  Level Indianapolis Center
04:59PM 37.7308 -85.8561 212° Southwest 397 457 33,000  Level Indianapolis Center
05:00PM 37.6333 -85.9275 210° Southwest 400 460 33,000  Level Indianapolis Center
05:01PM 37.5350 -86.0022 211° Southwest 394 453 33,000  Level Indianapolis Center
05:03PM 37.4383 -86.0733 210° Southwest 398 458 33,000  Level Indianapolis Center
05:04PM 37.3431 -86.1433 210° Southwest 395 455 33,000  Level Indianapolis Center
05:04PM 37.2908 -86.1831 211° Southwest 398 458 33,000  Level Memphis Center
05:05PM 37.1972 -86.2506 210° Southwest 398 458 33,000  Level Memphis Center
05:06PM 37.1017 -86.3231 211° Southwest 398 458 33,000  Level Memphis Center
05:07PM 37.0081 -86.3900 210° Southwest 389 448 33,000  Level Memphis Center
05:08PM 36.9097 -86.4417 203° Southwest 391 450 33,000 -840 Level Memphis Center
05:09PM 36.7886 -86.4372 178° South 386 444 31,400 -1,020 Descending Memphis Center
05:10PM 36.6717 -86.4272 176° South 406 467 31,000 -240 Descending Memphis Center
05:11PM 36.5589 -86.4200 177° South 413 475 31,000  Level Memphis Center
05:12PM 36.4439 -86.4128 177° South 413 475 31,000  Level Memphis Center
05:13PM 36.3311 -86.4053 177° South 413 475 31,000  Level Memphis Center
05:14PM 36.2164 -86.4006 178° South 413 475 31,000  Level Memphis Center
05:15PM 36.1139 -86.3928 176° South 418 481 31,000  Level Memphis Center
05:17PM 35.9381 -86.3828 177° South 452 520 31,000  Level Atlanta Center
05:18PM 35.8233 -86.3744 177° South 430 495 31,000  Level Atlanta Center
05:19PM 35.7114 -86.3406 166° South 419 482 31,000  Level Atlanta Center
05:20PM 35.6106 -86.2586 147° Southeast 419 482 31,000  Level Atlanta Center
05:21PM 35.5119 -86.1794 147° Southeast 426 490 31,000  Level Atlanta Center
05:22PM 35.4028 -86.0925 147° Southeast 433 498 31,000 -540 Level Atlanta Center
05:23PM 35.3061 -86.0161 147° Southeast 427 491 30,000 -1,020 Descending Atlanta Center
05:24PM 35.2175 -85.9403 145° Southeast 402 463 29,000 -1,200 Descending Atlanta Center
05:25PM 35.1411 -85.8828 148° Southeast 383 441 27,600 -1,380 Descending Atlanta Center
05:26PM 35.0544 -85.8147 147° Southeast 377 434 26,300 -1,260 Descending Atlanta Center
05:27PM 34.9719 -85.7497 147° Southeast 367 422 25,100 -1,140 Descending Atlanta Center
05:28PM 34.8894 -85.6847 147° Southeast 367 422 24,100 -600 Descending Atlanta Center
05:29PM 34.8047 -85.6172 147° Southeast 367 422 24,000 -60 Descending Atlanta Center
05:30PM 34.7219 -85.5550 148° Southeast 367 422 24,000  Level Atlanta Center
05:31PM 34.6353 -85.4828 146° Southeast 367 422 24,000 -600 Level Atlanta Center
05:32PM 34.5422 -85.4131 148° Southeast 373 429 22,800 -1,560 Descending Atlanta Center
05:33PM 34.4553 -85.3461 148° Southeast 380 437 20,900 -2,160 Descending Atlanta Center
05:34PM 34.3619 -85.2692 146° Southeast 375 432 18,500 -1,920 Descending Atlanta Center
05:35PM 34.2875 -85.2153 149° Southeast 363 418 17,100 -1,620 Descending Atlanta Center
05:36PM 34.2067 -85.1517 147° Southeast 363 418 15,300 -1,860 Descending Atlanta Center
05:37PM 34.1300 -85.0778 141° Southeast 352 405 13,400 -1,200 Descending Atlanta Center
05:38PM 34.0722 -85.0019 133° Southeast 328 377 13,000 -540 Descending Atlanta Center
05:39PM 34.0039 -84.9508 148° Southeast 297 342 12,400 -1,200 Descending Atlanta Center
05:40PM 33.9247 -84.9275 166° South 284 327 10,600 -1,620 Descending Atlanta Center
05:41PM 33.8475 -84.9142 172° South 284 327 9,200 -1,020 Descending Atlanta Center
05:42PM 33.7661 -84.9108 178° South 284 327 8,600 -840 Descending Atlanta Center
05:43PM 33.6847 -84.9050 177° South 294 338 7,600 -840 Descending Atlanta Center
05:44PM 33.6392 -84.8372 129° Southeast 251 289 7,000 -540 Descending Atlanta Center
05:44PM 33.6333 -84.8000 101° East 263 303 6,900 -1,320 Descending Atlanta TRACON
05:45PM 33.6333 -84.7000 90° East 262 302 5,100 -1,500 Descending Atlanta TRACON
05:46PM 33.6333 -84.6333 90° East 225 259 4,000 -1,260 Descending Atlanta TRACON